createdAt,value
2022-11-13T00:00:06.229Z,7.43
2022-11-13T00:02:35.619Z,7.44
2022-11-13T00:05:02.319Z,7.47
2022-11-13T00:07:28.897Z,7.47
2022-11-13T00:09:55.724Z,7.54
2022-11-13T00:12:22.358Z,7.54
2022-11-13T00:14:49.113Z,7.57
2022-11-13T00:17:15.709Z,7.58
2022-11-13T00:19:42.268Z,7.58
2022-11-13T00:22:08.825Z,7.58
2022-11-13T00:24:35.562Z,7.63
2022-11-13T00:27:02.403Z,7.64
2022-11-13T00:29:29.001Z,7.64
2022-11-13T00:31:55.563Z,7.65
2022-11-13T00:37:08.829Z,7.72
2022-11-13T00:39:35.406Z,7.77
2022-11-13T00:42:02.008Z,7.78
2022-11-13T00:44:28.701Z,7.75
2022-11-13T00:46:55.270Z,7.82
2022-11-13T00:49:21.820Z,7.84
2022-11-13T00:51:48.607Z,7.88
2022-11-13T00:54:15.081Z,7.89
2022-11-13T00:56:41.685Z,7.89
2022-11-13T00:59:08.501Z,7.91
2022-11-13T01:01:35.268Z,7.96
2022-11-13T01:04:01.821Z,7.98
2022-11-13T01:06:28.511Z,7.99
2022-11-13T01:08:57.522Z,8.01
2022-11-13T01:11:26.538Z,8.01
2022-11-13T01:13:53.612Z,8.03
2022-11-13T01:16:23.114Z,8.07
2022-11-13T01:18:50.518Z,8.06
2022-11-13T01:21:22.594Z,8.09
2022-11-13T01:23:49.180Z,8.13
2022-11-13T01:26:24.629Z,8.13
2022-11-13T01:28:51.490Z,8.15
2022-11-13T01:31:21.757Z,8.17
2022-11-13T01:33:49.171Z,8.17
2022-11-13T01:36:19.239Z,8.21
2022-11-13T01:38:46.130Z,8.23
2022-11-13T01:41:23.812Z,8.25
2022-11-13T01:43:52.293Z,8.23
2022-11-13T01:46:35.258Z,8.26
2022-11-13T01:49:20.789Z,8.32
2022-11-13T01:52:19.122Z,8.32
2022-11-13T01:54:50.301Z,8.37
2022-11-13T01:57:17.417Z,8.37
2022-11-13T01:59:50.281Z,8.40
2022-11-13T02:02:17.274Z,8.43
2022-11-13T02:04:44.578Z,8.59
2022-11-13T02:07:16.475Z,8.59
2022-11-13T02:09:52.100Z,8.60
2022-11-13T02:12:28.350Z,8.61
2022-11-13T02:14:57.913Z,8.63
2022-11-13T02:17:30.833Z,8.63
2022-11-13T02:20:00.768Z,8.60
2022-11-13T02:22:41.902Z,8.65
2022-11-13T02:25:09.914Z,8.63
2022-11-13T02:27:42.045Z,8.65
2022-11-13T02:30:27.398Z,8.64
2022-11-13T02:32:58.261Z,8.65
2022-11-13T02:35:32.020Z,8.63
2022-11-13T02:38:04.425Z,8.71
2022-11-13T02:40:32.622Z,8.68
2022-11-13T02:42:59.213Z,8.70
2022-11-13T02:45:25.810Z,8.70
2022-11-13T02:47:52.807Z,8.67
2022-11-13T02:50:19.418Z,8.75
2022-11-13T02:52:46.210Z,8.80
2022-11-13T02:55:13.151Z,8.85
2022-11-13T02:57:39.705Z,8.85
2022-11-13T03:00:10.692Z,8.80
2022-11-13T03:02:41.725Z,8.80
2022-11-13T03:05:13.604Z,8.81
2022-11-13T03:07:41.085Z,8.83
2022-11-13T03:10:09.288Z,8.84
2022-11-13T03:12:36.121Z,8.83
2022-11-13T03:15:04.825Z,8.85
2022-11-13T03:17:32.557Z,8.88
2022-11-13T03:19:59.534Z,8.91
2022-11-13T03:22:26.704Z,8.94
2022-11-13T03:24:53.637Z,8.91
2022-11-13T03:27:20.291Z,8.89
2022-11-13T03:29:47.348Z,8.92
2022-11-13T03:32:14.097Z,8.98
2022-11-13T03:34:40.693Z,8.95
2022-11-13T03:37:07.335Z,9.00
2022-11-13T03:39:34.185Z,9.12
2022-11-13T03:42:00.899Z,9.12
2022-11-13T03:44:27.585Z,9.12
2022-11-13T03:46:54.258Z,9.12
2022-11-13T03:49:20.838Z,9.15
2022-11-13T03:51:47.696Z,9.16
2022-11-13T03:54:14.288Z,9.43
2022-11-13T03:56:40.843Z,9.50
2022-11-13T03:59:07.583Z,9.46
2022-11-13T04:01:34.872Z,9.42
2022-11-13T04:04:01.637Z,9.46
2022-11-13T04:06:28.195Z,9.49
2022-11-13T04:08:54.824Z,9.57
2022-11-13T04:11:21.656Z,9.66
2022-11-13T04:13:48.736Z,9.70
2022-11-13T04:16:15.753Z,9.72
2022-11-13T04:18:42.377Z,9.72
2022-11-13T04:21:09.400Z,9.77
2022-11-13T04:23:36.610Z,9.80
2022-11-13T04:26:03.270Z,9.79
2022-11-13T04:28:30.200Z,9.82
2022-11-13T04:30:57.502Z,9.76
2022-11-13T04:33:24.096Z,9.70
2022-11-13T04:35:50.613Z,9.73
2022-11-13T04:38:17.259Z,9.70
2022-11-13T04:40:44.661Z,9.70
2022-11-13T04:43:11.261Z,9.63
2022-11-13T04:45:37.939Z,9.63
2022-11-13T04:48:04.696Z,9.64
2022-11-13T04:50:32.052Z,9.62
2022-11-13T04:52:59.156Z,9.63
2022-11-13T04:55:25.822Z,9.62
2022-11-13T04:57:55.550Z,9.63
2022-11-13T05:00:23.017Z,9.70
2022-11-13T05:02:49.798Z,9.59
2022-11-13T05:05:16.701Z,9.59
2022-11-13T05:07:43.298Z,9.64
2022-11-13T05:10:10.055Z,9.74
2022-11-13T05:12:36.633Z,9.73
2022-11-13T05:15:04.156Z,9.76
2022-11-13T05:17:30.876Z,9.73
2022-11-13T05:19:57.499Z,9.69
2022-11-13T05:22:24.116Z,9.62
2022-11-13T05:24:50.690Z,9.56
2022-11-13T05:27:17.954Z,9.56
2022-11-13T05:29:45.138Z,9.50
2022-11-13T05:32:11.916Z,9.57
2022-11-13T05:34:38.499Z,9.57
2022-11-13T05:37:05.180Z,9.55
2022-11-13T05:39:31.814Z,9.56
2022-11-13T05:41:58.820Z,9.62
2022-11-13T05:44:25.378Z,9.55
2022-11-13T05:46:52.025Z,9.53
2022-11-13T05:49:18.614Z,9.56
2022-11-13T05:51:45.245Z,9.60
2022-11-13T05:54:11.816Z,9.73
2022-11-13T05:56:38.479Z,9.69
2022-11-13T05:59:05.356Z,9.66
2022-11-13T06:01:40.212Z,9.63
2022-11-13T06:04:07.971Z,9.64
2022-11-13T06:06:35.230Z,9.60
2022-11-13T06:09:04.556Z,9.77
2022-11-13T06:11:31.483Z,9.72
2022-11-13T06:13:59.339Z,9.66
2022-11-13T06:16:33.462Z,9.57
2022-11-13T06:19:02.327Z,9.57
2022-11-13T06:21:31.211Z,9.57
2022-11-13T06:23:59.093Z,9.62
2022-11-13T06:26:28.673Z,9.70
2022-11-13T06:28:55.425Z,9.76
2022-11-13T06:31:28.445Z,9.77
2022-11-13T06:33:55.334Z,9.79
2022-11-13T06:36:24.760Z,9.83
2022-11-13T06:38:51.843Z,9.76
2022-11-13T06:41:20.759Z,9.72
2022-11-13T06:43:48.769Z,9.67
2022-11-13T06:46:21.340Z,9.76
2022-11-13T06:48:48.606Z,9.70
2022-11-13T06:51:21.597Z,9.73
2022-11-13T06:53:48.809Z,9.66
2022-11-13T06:56:16.168Z,9.66
2022-11-13T06:58:43.824Z,9.66
2022-11-13T07:01:19.670Z,9.64
2022-11-13T07:03:46.462Z,9.70
2022-11-13T07:06:16.255Z,9.77
2022-11-13T07:08:43.549Z,9.70
2022-11-13T07:11:16.652Z,9.64
2022-11-13T07:13:44.046Z,9.73
2022-11-13T07:16:19.081Z,9.72
2022-11-13T07:18:53.053Z,9.69
2022-11-13T07:21:19.966Z,9.77
2022-11-13T07:23:48.625Z,9.86
2022-11-13T07:26:15.664Z,9.89
2022-11-13T07:28:42.233Z,9.84
2022-11-13T07:31:11.907Z,9.93
2022-11-13T07:33:38.782Z,9.86
2022-11-13T07:36:05.912Z,10.03
2022-11-13T07:38:32.510Z,10.01
2022-11-13T07:40:59.117Z,9.95
2022-11-13T07:43:26.977Z,9.97
2022-11-13T07:45:56.985Z,10.00
2022-11-13T07:48:24.261Z,9.93
2022-11-13T07:50:51.219Z,10.01
2022-11-13T07:53:18.785Z,10.04
2022-11-13T07:55:45.373Z,10.01
2022-11-13T07:58:12.031Z,10.03
2022-11-13T08:00:39.267Z,10.08
2022-11-13T08:03:12.444Z,10.11
2022-11-13T08:05:39.772Z,10.13
2022-11-13T08:08:07.213Z,10.07
2022-11-13T08:10:34.360Z,10.13
2022-11-13T08:13:06.653Z,10.11
2022-11-13T08:15:34.249Z,10.07
2022-11-13T08:18:03.106Z,10.04
2022-11-13T08:20:31.069Z,10.11
2022-11-13T08:23:00.004Z,10.13
2022-11-13T08:25:28.239Z,10.13
2022-11-13T08:27:55.229Z,10.11
2022-11-13T08:30:23.140Z,10.14
2022-11-13T08:32:50.151Z,10.14
2022-11-13T08:35:19.410Z,10.14
2022-11-13T08:37:46.557Z,10.14
2022-11-13T08:40:13.679Z,10.10
2022-11-13T08:42:40.292Z,10.17
2022-11-13T08:45:08.024Z,10.17
2022-11-13T08:47:34.729Z,10.20
2022-11-13T08:50:01.966Z,10.18
2022-11-13T08:52:28.698Z,10.25
2022-11-13T08:54:55.710Z,10.24
2022-11-13T08:57:22.695Z,10.22
2022-11-13T08:59:49.264Z,10.28
2022-11-13T09:02:16.172Z,10.34
2022-11-13T09:04:43.236Z,10.28
2022-11-13T09:07:10.081Z,10.30
2022-11-13T09:09:37.239Z,10.30
2022-11-13T09:12:04.347Z,10.27
2022-11-13T09:14:30.970Z,10.30
2022-11-13T09:16:57.684Z,10.22
2022-11-13T09:19:25.090Z,10.32
2022-11-13T09:21:52.083Z,10.38
2022-11-13T09:24:18.953Z,10.35
2022-11-13T09:26:45.504Z,10.35
2022-11-13T09:29:12.139Z,10.35
2022-11-13T09:31:40.964Z,10.34
2022-11-13T09:34:08.354Z,10.34
2022-11-13T09:36:35.283Z,10.37
2022-11-13T09:39:02.030Z,10.34
2022-11-13T09:41:33.867Z,10.38
2022-11-13T09:44:06.962Z,10.41
2022-11-13T09:46:49.127Z,10.40
2022-11-13T09:49:36.368Z,10.42
2022-11-13T09:52:10.581Z,10.40
2022-11-13T09:54:38.310Z,10.46
2022-11-13T09:57:41.552Z,10.51
2022-11-13T10:00:14.387Z,10.56
2022-11-13T10:03:33.472Z,10.55
2022-11-13T10:06:27.006Z,10.49
2022-11-13T10:08:58.451Z,10.51
2022-11-13T10:11:37.460Z,10.51
2022-11-13T10:14:48.300Z,10.51
2022-11-13T10:17:19.820Z,10.54
2022-11-13T10:19:58.397Z,10.48
2022-11-13T10:22:33.029Z,10.54
2022-11-13T10:25:10.456Z,10.52
2022-11-13T10:27:37.869Z,10.54
2022-11-13T10:30:13.092Z,10.68
2022-11-13T10:32:39.804Z,10.65
2022-11-13T10:35:06.409Z,10.61
2022-11-13T10:37:54.108Z,10.69
2022-11-13T10:40:28.693Z,10.69
2022-11-13T10:43:05.363Z,10.65
2022-11-13T10:45:32.037Z,10.77
2022-11-13T10:48:04.239Z,10.72
2022-11-13T10:50:32.809Z,10.75
2022-11-13T10:52:59.847Z,10.79
2022-11-13T10:55:40.782Z,10.85
2022-11-13T10:58:16.729Z,10.86
2022-11-13T11:00:47.406Z,10.92
2022-11-13T11:03:19.594Z,10.92
2022-11-13T11:06:04.381Z,10.95
2022-11-13T11:08:35.141Z,10.96
2022-11-13T11:11:35.247Z,10.97
2022-11-13T11:14:25.620Z,10.91
2022-11-13T11:16:54.080Z,10.89
2022-11-13T11:19:27.730Z,10.82
2022-11-13T11:22:22.324Z,10.89
2022-11-13T11:25:00.936Z,10.95
2022-11-13T11:27:37.611Z,10.99
2022-11-13T11:30:18.411Z,11.00
2022-11-13T11:32:51.104Z,11.00
2022-11-13T11:35:21.871Z,10.93
2022-11-13T11:37:59.248Z,10.89
2022-11-13T11:40:30.429Z,10.96
2022-11-13T11:43:32.778Z,11.06
2022-11-13T11:45:59.319Z,11.03
2022-11-13T11:48:28.579Z,10.93
2022-11-13T11:51:18.877Z,10.97
2022-11-13T11:54:22.807Z,10.99
2022-11-13T11:56:53.656Z,10.99
2022-11-13T11:59:33.913Z,10.96
2022-11-13T12:02:06.583Z,10.95
2022-11-13T12:04:39.389Z,10.95
2022-11-13T12:07:16.833Z,10.93
2022-11-13T12:10:08.579Z,10.91
2022-11-13T12:12:35.212Z,10.85
2022-11-13T12:15:04.242Z,10.83
2022-11-13T12:17:53.340Z,10.88
2022-11-13T12:20:51.980Z,10.99
2022-11-13T12:23:30.289Z,10.99
2022-11-13T12:26:05.233Z,11.06
2022-11-13T12:28:42.364Z,11.06
2022-11-13T12:31:21.247Z,11.10
2022-11-13T12:34:13.262Z,11.10
2022-11-13T12:36:40.124Z,11.14
2022-11-13T12:39:32.826Z,11.20
2022-11-13T12:42:25.684Z,11.27
2022-11-13T12:45:25.235Z,11.28
2022-11-13T12:47:52.238Z,11.37
2022-11-13T12:50:31.435Z,11.53
2022-11-13T12:53:09.486Z,11.58
2022-11-13T12:55:38.833Z,11.78
2022-11-13T12:58:32.478Z,11.86
2022-11-13T13:01:06.680Z,11.86
2022-11-13T13:04:00.822Z,11.89
2022-11-13T13:06:39.936Z,11.95
2022-11-13T13:09:09.787Z,11.96
2022-11-13T13:11:45.249Z,11.98
2022-11-13T13:14:11.802Z,11.94
2022-11-13T13:16:38.400Z,11.92
2022-11-13T13:19:30.954Z,12.02
2022-11-13T13:21:57.960Z,12.08
2022-11-13T13:24:32.698Z,12.08
2022-11-13T13:27:00.199Z,11.95
2022-11-13T13:29:28.684Z,12.01
2022-11-13T13:32:27.920Z,11.98
2022-11-13T13:35:15.358Z,11.86
2022-11-13T13:38:00.718Z,11.91
2022-11-13T13:40:45.395Z,11.96
2022-11-13T13:43:40.777Z,11.95
2022-11-13T13:46:15.129Z,11.96
2022-11-13T13:48:45.471Z,11.91
2022-11-13T13:51:17.373Z,11.85
2022-11-13T13:53:44.287Z,11.78
2022-11-13T13:56:13.765Z,11.72
2022-11-13T13:58:41.222Z,11.61
2022-11-13T14:01:19.019Z,11.53
2022-11-13T14:03:46.753Z,11.31
2022-11-13T14:06:24.112Z,11.17
2022-11-13T14:08:50.746Z,11.04
2022-11-13T14:11:26.714Z,10.89
2022-11-13T14:13:53.350Z,10.79
2022-11-13T14:16:19.945Z,10.71
2022-11-13T14:18:46.599Z,10.63
2022-11-13T14:21:24.967Z,10.58
2022-11-13T14:23:53.231Z,10.59
2022-11-13T14:26:20.533Z,10.56
2022-11-13T14:28:55.285Z,10.44
2022-11-13T14:31:29.758Z,10.37
2022-11-13T14:33:59.998Z,10.25
2022-11-13T14:36:29.960Z,10.22
2022-11-13T14:38:58.519Z,10.21
2022-11-13T14:41:28.426Z,10.08
2022-11-13T14:43:55.386Z,10.00
2022-11-13T14:46:35.239Z,9.93
2022-11-13T14:49:02.306Z,9.82
2022-11-13T14:51:33.428Z,9.77
2022-11-13T14:54:07.618Z,9.63
2022-11-13T14:56:43.780Z,9.66
2022-11-13T14:59:19.758Z,9.59
2022-11-13T15:01:57.782Z,9.49
2022-11-13T15:04:25.415Z,9.46
2022-11-13T15:06:56.066Z,9.53
2022-11-13T15:09:24.354Z,9.39
2022-11-13T15:11:51.433Z,9.21
2022-11-13T15:14:20.087Z,9.12
2022-11-13T15:16:48.672Z,8.98
2022-11-13T15:19:31.764Z,8.92
2022-11-13T15:22:25.769Z,9.07
2022-11-13T15:24:45.434Z,8.98
2022-11-13T15:27:18.710Z,8.89
2022-11-13T15:29:45.368Z,8.74
2022-11-13T15:32:13.085Z,8.81
2022-11-13T15:34:40.180Z,8.65
2022-11-13T15:37:14.805Z,8.53
2022-11-13T15:39:41.661Z,8.53
2022-11-13T15:42:18.455Z,8.49
2022-11-13T15:44:45.939Z,8.39
2022-11-13T15:47:26.316Z,8.40
2022-11-13T15:50:12.498Z,8.36
2022-11-13T15:52:42.564Z,8.44
2022-11-13T15:55:17.437Z,8.44
2022-11-13T15:57:44.453Z,8.37
2022-11-13T16:00:17.699Z,8.37
2022-11-13T16:02:44.520Z,8.30
2022-11-13T16:05:11.279Z,8.25
2022-11-13T16:07:41.273Z,8.33
2022-11-13T16:10:10.749Z,8.26
2022-11-13T16:12:37.723Z,8.16
2022-11-13T16:15:04.733Z,8.13
2022-11-13T16:17:39.139Z,8.05
2022-11-13T16:20:07.748Z,8.07
2022-11-13T16:22:35.051Z,8.15
2022-11-13T16:25:01.578Z,8.17
2022-11-13T16:27:31.177Z,8.13
2022-11-13T16:30:00.003Z,8.02
2022-11-13T16:32:30.847Z,8.02
2022-11-13T16:34:57.426Z,8.01
2022-11-13T16:37:24.628Z,7.91
2022-11-13T16:39:51.197Z,7.89
2022-11-13T16:42:17.844Z,7.92
2022-11-13T16:44:44.532Z,7.98
2022-11-13T16:47:23.640Z,7.89
2022-11-13T16:49:50.424Z,7.81
2022-11-13T16:52:18.406Z,7.77
2022-11-13T16:54:45.744Z,7.68
2022-11-13T16:57:14.599Z,7.74
2022-11-13T16:59:41.288Z,7.68
2022-11-13T17:02:14.449Z,7.67
2022-11-13T17:04:41.657Z,7.61
2022-11-13T17:07:12.605Z,7.54
2022-11-13T17:09:41.401Z,7.58
2022-11-13T17:12:09.784Z,7.63
2022-11-13T17:14:36.561Z,7.64
2022-11-13T17:17:10.823Z,7.48
2022-11-13T17:19:43.723Z,7.47
2022-11-13T17:22:11.991Z,7.47
2022-11-13T17:24:39.709Z,7.46
2022-11-13T17:27:07.296Z,7.34
2022-11-13T17:29:34.389Z,7.37
2022-11-13T17:32:01.128Z,7.40
2022-11-13T17:34:28.196Z,7.43
2022-11-13T17:36:54.902Z,7.47
2022-11-13T17:39:21.879Z,7.47
2022-11-13T17:41:50.525Z,7.53
2022-11-13T17:44:17.622Z,7.60
2022-11-13T17:46:44.552Z,7.55
2022-11-13T17:49:11.165Z,7.41
2022-11-13T17:51:37.987Z,7.48
2022-11-13T17:54:05.017Z,7.48
2022-11-13T17:56:31.671Z,7.41
2022-11-13T17:58:58.393Z,7.46
2022-11-13T18:01:25.114Z,7.47
2022-11-13T18:03:56.330Z,7.57
2022-11-13T18:06:23.673Z,7.55
2022-11-13T18:08:50.403Z,7.47
2022-11-13T18:11:20.677Z,7.47
2022-11-13T18:13:48.394Z,7.54
2022-11-13T18:16:20.989Z,7.47
2022-11-13T18:18:50.198Z,7.46
2022-11-13T18:21:23.572Z,7.46
2022-11-13T18:24:00.367Z,7.54
2022-11-13T18:26:29.178Z,7.54
2022-11-13T18:28:56.842Z,7.53
2022-11-13T18:31:23.987Z,7.51
2022-11-13T18:33:51.016Z,7.51
2022-11-13T18:36:18.500Z,7.53
2022-11-13T18:38:45.614Z,7.48
2022-11-13T18:41:15.396Z,7.57
2022-11-13T18:43:46.673Z,7.64
2022-11-13T18:46:18.498Z,7.61
2022-11-13T18:48:46.703Z,7.57
2022-11-13T18:51:19.516Z,7.57
2022-11-13T18:53:50.750Z,7.54
2022-11-13T18:56:21.101Z,7.55
2022-11-13T18:58:49.512Z,7.57
2022-11-13T19:01:22.575Z,7.55
2022-11-13T19:04:22.451Z,7.60
2022-11-13T19:06:40.541Z,7.57
2022-11-13T19:09:11.482Z,7.55
2022-11-13T19:11:38.854Z,7.54
2022-11-13T19:14:06.242Z,7.48
2022-11-13T19:16:35.675Z,7.44
2022-11-13T19:19:05.013Z,7.40
2022-11-13T19:21:34.123Z,7.40
2022-11-13T19:24:02.441Z,7.46
2022-11-13T19:26:29.175Z,7.50
2022-11-13T19:28:56.472Z,7.37
2022-11-13T19:31:25.244Z,7.46
2022-11-13T19:33:59.702Z,7.40
2022-11-13T19:36:28.250Z,7.37
2022-11-13T19:38:55.887Z,7.37
2022-11-13T19:41:23.854Z,7.34
2022-11-13T19:43:50.525Z,7.28
2022-11-13T19:46:19.431Z,7.40
2022-11-13T19:48:47.848Z,7.34
2022-11-13T19:51:24.955Z,7.35
2022-11-13T19:53:56.944Z,7.24
2022-11-13T19:56:25.531Z,7.22
2022-11-13T19:58:52.763Z,7.27
2022-11-13T20:01:22.423Z,7.28
2022-11-13T20:03:57.121Z,7.24
2022-11-13T20:06:24.641Z,7.33
2022-11-13T20:08:51.302Z,7.34
2022-11-13T20:11:17.961Z,7.33
2022-11-13T20:13:44.950Z,7.27
2022-11-13T20:16:13.976Z,7.24
2022-11-13T20:18:42.211Z,7.19
2022-11-13T20:21:09.441Z,7.13
2022-11-13T20:23:36.559Z,7.12
2022-11-13T20:26:06.541Z,7.14
2022-11-13T20:28:34.028Z,7.14
2022-11-13T20:31:19.627Z,7.13
2022-11-13T20:33:47.260Z,7.12
2022-11-13T20:36:15.061Z,7.09
2022-11-13T20:38:44.279Z,7.09
2022-11-13T20:41:11.383Z,7.04
2022-11-13T20:43:38.935Z,7.04
2022-11-13T20:46:15.697Z,7.03
2022-11-13T20:48:42.672Z,7.06
2022-11-13T20:51:13.667Z,7.10
2022-11-13T20:53:41.186Z,7.03
2022-11-13T20:56:08.744Z,7.02
2022-11-13T20:58:35.673Z,7.06
2022-11-13T21:01:25.241Z,7.03
2022-11-13T21:03:52.680Z,7.09
2022-11-13T21:06:22.768Z,7.10
2022-11-13T21:08:49.591Z,7.10
2022-11-13T21:11:27.067Z,7.06
2022-11-13T21:13:55.345Z,7.04
2022-11-13T21:16:22.474Z,7.09
2022-11-13T21:18:49.212Z,7.06
2022-11-13T21:21:20.580Z,7.10
2022-11-13T21:23:48.182Z,7.07
2022-11-13T21:26:15.553Z,7.04
2022-11-13T21:28:42.080Z,7.06
2022-11-13T21:31:14.806Z,6.91
2022-11-13T21:33:43.607Z,6.91
2022-11-13T21:36:24.895Z,6.86
2022-11-13T21:38:53.412Z,6.85
2022-11-13T21:41:21.374Z,6.86
2022-11-13T21:43:49.793Z,6.95
2022-11-13T21:46:17.389Z,6.91
2022-11-13T21:48:44.910Z,6.79
2022-11-13T21:51:11.819Z,6.93
2022-11-13T21:53:39.072Z,6.88
2022-11-13T21:56:09.055Z,6.91
2022-11-13T21:58:40.649Z,6.91
2022-11-13T22:01:08.987Z,6.88
2022-11-13T22:03:35.582Z,6.86
2022-11-13T22:06:22.593Z,6.82
2022-11-13T22:08:59.913Z,6.88
2022-11-13T22:11:31.888Z,6.91
2022-11-13T22:13:59.113Z,6.89
2022-11-13T22:16:28.333Z,6.79
2022-11-13T22:18:57.322Z,6.88
2022-11-13T22:21:25.457Z,6.86
2022-11-13T22:23:52.555Z,6.85
2022-11-13T22:26:20.219Z,6.88
2022-11-13T22:28:47.953Z,6.91
2022-11-13T22:31:20.465Z,6.82
2022-11-13T22:33:50.537Z,6.86
2022-11-13T22:36:32.742Z,6.86
2022-11-13T22:39:00.293Z,6.89
2022-11-13T22:41:29.361Z,6.89
2022-11-13T22:43:59.664Z,6.89
2022-11-13T22:46:29.419Z,6.86
2022-11-13T22:48:57.283Z,6.85
2022-11-13T22:51:37.830Z,6.88
2022-11-13T22:54:07.268Z,6.85
2022-11-13T22:56:35.015Z,6.91
2022-11-13T22:59:03.325Z,6.86
2022-11-13T23:01:32.428Z,6.83
2022-11-13T23:04:01.022Z,6.83
2022-11-13T23:06:29.962Z,6.82
2022-11-13T23:08:57.049Z,6.79
2022-11-13T23:11:33.072Z,6.75
2022-11-13T23:14:02.258Z,6.79
2022-11-13T23:16:30.135Z,6.76
2022-11-13T23:18:58.228Z,6.71
2022-11-13T23:21:26.464Z,6.78
2022-11-13T23:23:54.202Z,6.73
2022-11-13T23:26:21.484Z,6.76
2022-11-13T23:28:48.587Z,6.71
2022-11-13T23:31:16.074Z,6.81
2022-11-13T23:33:42.819Z,6.75
2022-11-13T23:36:11.610Z,6.75
2022-11-13T23:38:38.891Z,6.81
2022-11-13T23:41:05.721Z,6.75
2022-11-13T23:44:06.573Z,6.79
2022-11-13T23:46:19.277Z,6.76
2022-11-13T23:48:45.989Z,6.81
2022-11-13T23:51:13.672Z,6.72
2022-11-13T23:53:40.258Z,6.78
2022-11-13T23:56:07.493Z,6.82
2022-11-13T23:58:34.461Z,6.82
